sensor_id;sensor_type;location;lat;lon;timestamp;pressure;altitude;pressure_sealevel;temperature;humidity
69980;BME280;57318;56.232;43.944;2023-05-21T00:01:13;99857.22;;;12.85;89.57
69980;BME280;57318;56.232;43.944;2023-05-21T00:03:41;99855.97;;;12.89;89.57
69980;BME280;57318;56.232;43.944;2023-05-21T00:06:13;99855.97;;;12.89;89.65
69980;BME280;57318;56.232;43.944;2023-05-21T00:08:40;99862.06;;;12.91;89.58
69980;BME280;57318;56.232;43.944;2023-05-21T00:11:07;99856.59;;;12.92;89.57
69980;BME280;57318;56.232;43.944;2023-05-21T00:13:33;99859.13;;;12.94;89.54
69980;BME280;57318;56.232;43.944;2023-05-21T00:15:59;99859.00;;;12.95;89.47
69980;BME280;57318;56.232;43.944;2023-05-21T00:18:24;99858.00;;;12.96;89.38
69980;BME280;57318;56.232;43.944;2023-05-21T00:20:50;99859.84;;;12.96;89.53
69980;BME280;57318;56.232;43.944;2023-05-21T00:23:17;99858.88;;;12.97;89.35
69980;BME280;57318;56.232;43.944;2023-05-21T00:25:44;99861.41;;;12.98;89.57
69980;BME280;57318;56.232;43.944;2023-05-21T00:28:11;99865.63;;;13.01;89.51
69980;BME280;57318;56.232;43.944;2023-05-21T00:30:36;99863.81;;;13.02;89.69
69980;BME280;57318;56.232;43.944;2023-05-21T00:33:02;99854.81;;;13.03;89.66
69980;BME280;57318;56.232;43.944;2023-05-21T00:35:28;99859.47;;;13.00;89.60
69980;BME280;57318;56.232;43.944;2023-05-21T00:37:54;99853.41;;;12.98;89.93
69980;BME280;57318;56.232;43.944;2023-05-21T00:40:20;99858.75;;;12.98;89.93
69980;BME280;57318;56.232;43.944;2023-05-21T00:42:46;99856.09;;;12.98;89.97
69980;BME280;57318;56.232;43.944;2023-05-21T00:45:12;99850.75;;;12.98;89.94
69980;BME280;57318;56.232;43.944;2023-05-21T00:47:42;99856.91;;;12.99;90.00
69980;BME280;57318;56.232;43.944;2023-05-21T00:50:10;99864.78;;;13.00;90.04
69980;BME280;57318;56.232;43.944;2023-05-21T00:52:36;99863.94;;;13.00;90.03
69980;BME280;57318;56.232;43.944;2023-05-21T00:55:07;99863.94;;;13.00;90.34
69980;BME280;57318;56.232;43.944;2023-05-21T00:57:34;99867.19;;;13.04;90.57
69980;BME280;57318;56.232;43.944;2023-05-21T01:00:03;99871.28;;;13.08;90.78
69980;BME280;57318;56.232;43.944;2023-05-21T01:02:32;99854.75;;;13.14;90.79
69980;BME280;57318;56.232;43.944;2023-05-21T01:04:59;99867.84;;;13.17;91.05
69980;BME280;57318;56.232;43.944;2023-05-21T01:07:25;99860.47;;;13.21;90.73
69980;BME280;57318;56.232;43.944;2023-05-21T01:09:51;99858.63;;;13.21;90.41
69980;BME280;57318;56.232;43.944;2023-05-21T01:12:19;99852.31;;;13.22;90.55
69980;BME280;57318;56.232;43.944;2023-05-21T01:14:46;99853.03;;;13.24;90.54
69980;BME280;57318;56.232;43.944;2023-05-21T01:17:12;99850.09;;;13.27;90.52
69980;BME280;57318;56.232;43.944;2023-05-21T01:19:38;99834.91;;;13.28;90.59
69980;BME280;57318;56.232;43.944;2023-05-21T01:22:06;99846.19;;;13.31;90.32
69980;BME280;57318;56.232;43.944;2023-05-21T01:24:33;99845.94;;;13.34;90.36
69980;BME280;57318;56.232;43.944;2023-05-21T01:27:01;99847.66;;;13.35;90.25
69980;BME280;57318;56.232;43.944;2023-05-21T01:29:26;99846.56;;;13.38;89.89
69980;BME280;57318;56.232;43.944;2023-05-21T01:34:25;99853.03;;;13.45;89.70
69980;BME280;57318;56.232;43.944;2023-05-21T01:37:02;99858.13;;;13.48;89.50
69980;BME280;57318;56.232;43.944;2023-05-21T01:39:34;99849.28;;;13.48;89.26
69980;BME280;57318;56.232;43.944;2023-05-21T01:42:05;99861.78;;;13.47;89.26
69980;BME280;57318;56.232;43.944;2023-05-21T01:44:34;99856.59;;;13.46;89.20
69980;BME280;57318;56.232;43.944;2023-05-21T01:47:02;99852.78;;;13.48;89.36
69980;BME280;57318;56.232;43.944;2023-05-21T01:49:28;99852.22;;;13.45;89.19
69980;BME280;57318;56.232;43.944;2023-05-21T01:51:54;99852.22;;;13.45;89.32
69980;BME280;57318;56.232;43.944;2023-05-21T01:54:20;99849.66;;;13.43;89.11
69980;BME280;57318;56.232;43.944;2023-05-21T01:56:48;99855.84;;;13.44;89.40
69980;BME280;57318;56.232;43.944;2023-05-21T01:59:14;99857.53;;;13.45;89.34
69980;BME280;57318;56.232;43.944;2023-05-21T02:01:41;99862.06;;;13.44;89.00
69980;BME280;57318;56.232;43.944;2023-05-21T02:04:07;99853.44;;;13.41;89.02
69980;BME280;57318;56.232;43.944;2023-05-21T02:06:33;99857.81;;;13.42;89.22
69980;BME280;57318;56.232;43.944;2023-05-21T02:09:00;99859.50;;;13.43;89.23
69980;BME280;57318;56.232;43.944;2023-05-21T02:11:27;99861.19;;;13.44;89.19
69980;BME280;57318;56.232;43.944;2023-05-21T02:13:52;99858.50;;;13.44;89.01
69980;BME280;57318;56.232;43.944;2023-05-21T02:16:19;99862.88;;;13.45;89.11
69980;BME280;57318;56.232;43.944;2023-05-21T02:18:47;99869.78;;;13.47;89.12
69980;BME280;57318;56.232;43.944;2023-05-21T02:21:16;99867.00;;;13.49;88.83
69980;BME280;57318;56.232;43.944;2023-05-21T02:23:41;99864.06;;;13.52;88.76
69980;BME280;57318;56.232;43.944;2023-05-21T02:26:07;99870.25;;;13.52;88.60
69980;BME280;57318;56.232;43.944;2023-05-21T02:28:33;99869.16;;;13.55;88.45
69980;BME280;57318;56.232;43.944;2023-05-21T02:31:00;99877.84;;;13.57;88.37
69980;BME280;57318;56.232;43.944;2023-05-21T02:33:26;99873.09;;;13.61;88.09
69980;BME280;57318;56.232;43.944;2023-05-21T02:35:52;99884.59;;;13.61;88.03
69980;BME280;57318;56.232;43.944;2023-05-21T02:38:18;99877.59;;;13.60;87.92
69980;BME280;57318;56.232;43.944;2023-05-21T02:40:50;99877.59;;;13.60;87.77
69980;BME280;57318;56.232;43.944;2023-05-21T02:43:16;99877.47;;;13.62;87.54
69980;BME280;57318;56.232;43.944;2023-05-21T02:45:42;99881.50;;;13.56;87.32
69980;BME280;57318;56.232;43.944;2023-05-21T02:48:08;99883.47;;;13.54;87.44
69980;BME280;57318;56.232;43.944;2023-05-21T02:50:33;99883.19;;;13.57;87.65
69980;BME280;57318;56.232;43.944;2023-05-21T02:53:00;99886.00;;;13.56;87.54
69980;BME280;57318;56.232;43.944;2023-05-21T02:55:25;99885.16;;;13.55;87.21
69980;BME280;57318;56.232;43.944;2023-05-21T02:57:51;99877.41;;;13.52;87.39
69980;BME280;57318;56.232;43.944;2023-05-21T03:00:17;99884.03;;;13.58;87.44
69980;BME280;57318;56.232;43.944;2023-05-21T03:02:42;99886.31;;;13.62;87.26
69980;BME280;57318;56.232;43.944;2023-05-21T03:05:08;99887.88;;;13.65;87.09
69980;BME280;57318;56.232;43.944;2023-05-21T03:07:34;99884.44;;;13.74;87.00
69980;BME280;57318;56.232;43.944;2023-05-21T03:10:00;99888.38;;;13.80;86.24
69980;BME280;57318;56.232;43.944;2023-05-21T03:12:26;99895.16;;;13.84;85.83
69980;BME280;57318;56.232;43.944;2023-05-21T03:14:52;99897.44;;;13.88;85.66
69980;BME280;57318;56.232;43.944;2023-05-21T03:17:18;99901.91;;;13.88;85.26
69980;BME280;57318;56.232;43.944;2023-05-21T03:19:44;99890.38;;;13.87;84.91
69980;BME280;57318;56.232;43.944;2023-05-21T03:22:10;99893.06;;;13.87;84.87
69980;BME280;57318;56.232;43.944;2023-05-21T03:24:37;99906.16;;;13.90;84.72
69980;BME280;57318;56.232;43.944;2023-05-21T03:27:03;99906.44;;;13.97;84.68
69980;BME280;57318;56.232;43.944;2023-05-21T03:29:31;99907.66;;;14.14;84.58
69980;BME280;57318;56.232;43.944;2023-05-21T03:31:57;99907.28;;;14.29;84.17
69980;BME280;57318;56.232;43.944;2023-05-21T03:34:23;99904.22;;;14.43;82.45
69980;BME280;57318;56.232;43.944;2023-05-21T03:36:49;99911.97;;;14.46;82.20
69980;BME280;57318;56.232;43.944;2023-05-21T03:39:15;99911.16;;;14.46;81.87
69980;BME280;57318;56.232;43.944;2023-05-21T03:41:42;99913.66;;;14.37;81.70
69980;BME280;57318;56.232;43.944;2023-05-21T03:44:08;99926.88;;;14.29;81.97
69980;BME280;57318;56.232;43.944;2023-05-21T03:46:33;99920.09;;;14.25;82.05
69980;BME280;57318;56.232;43.944;2023-05-21T03:48:59;99924.47;;;14.26;82.55
69980;BME280;57318;56.232;43.944;2023-05-21T03:51:25;99918.13;;;14.27;81.71
69980;BME280;57318;56.232;43.944;2023-05-21T03:53:52;99914.47;;;14.28;81.42
69980;BME280;57318;56.232;43.944;2023-05-21T03:56:17;99913.09;;;14.34;81.25
69980;BME280;57318;56.232;43.944;2023-05-21T03:58:43;99912.97;;;14.45;81.04
69980;BME280;57318;56.232;43.944;2023-05-21T04:01:09;99907.22;;;14.50;80.67
69980;BME280;57318;56.232;43.944;2023-05-21T04:03:35;99920.63;;;14.59;80.69
69980;BME280;57318;56.232;43.944;2023-05-21T04:06:02;99921.94;;;14.65;80.13
69980;BME280;57318;56.232;43.944;2023-05-21T04:08:28;99916.31;;;14.78;79.83
69980;BME280;57318;56.232;43.944;2023-05-21T04:10:54;99922.53;;;14.88;79.88
69980;BME280;57318;56.232;43.944;2023-05-21T04:13:20;99928.47;;;15.02;79.58
69980;BME280;57318;56.232;43.944;2023-05-21T04:15:45;99931.97;;;15.12;79.69
69980;BME280;57318;56.232;43.944;2023-05-21T04:18:12;99932.41;;;15.07;78.04
69980;BME280;57318;56.232;43.944;2023-05-21T04:20:41;99934.09;;;15.28;77.84
69980;BME280;57318;56.232;43.944;2023-05-21T04:23:08;99938.59;;;15.37;76.58
69980;BME280;57318;56.232;43.944;2023-05-21T04:25:34;99929.28;;;15.61;76.57
69980;BME280;57318;56.232;43.944;2023-05-21T04:28:00;99932.34;;;15.95;76.27
69980;BME280;57318;56.232;43.944;2023-05-21T04:30:26;99924.78;;;16.18;74.67
69980;BME280;57318;56.232;43.944;2023-05-21T04:32:52;99934.13;;;16.42;73.42
69980;BME280;57318;56.232;43.944;2023-05-21T04:35:19;99930.50;;;16.61;72.96
69980;BME280;57318;56.232;43.944;2023-05-21T04:37:45;99939.50;;;16.70;72.96
69980;BME280;57318;56.232;43.944;2023-05-21T04:40:11;99943.25;;;16.77;72.32
69980;BME280;57318;56.232;43.944;2023-05-21T04:42:46;99946.94;;;16.86;72.42
69980;BME280;57318;56.232;43.944;2023-05-21T04:45:15;99947.00;;;16.94;71.31
69980;BME280;57318;56.232;43.944;2023-05-21T04:47:42;99954.91;;;16.95;71.56
69980;BME280;57318;56.232;43.944;2023-05-21T04:50:08;99956.75;;;16.95;71.75
69980;BME280;57318;56.232;43.944;2023-05-21T04:52:38;99949.53;;;16.95;70.99
69980;BME280;57318;56.232;43.944;2023-05-21T04:55:08;99953.91;;;16.97;70.63
69980;BME280;57318;56.232;43.944;2023-05-21T04:57:33;99951.09;;;16.98;70.21
69980;BME280;57318;56.232;43.944;2023-05-21T05:00:00;99947.47;;;16.89;69.94
69980;BME280;57318;56.232;43.944;2023-05-21T05:02:26;99950.44;;;16.86;70.23
69980;BME280;57318;56.232;43.944;2023-05-21T05:04:52;99954.13;;;16.85;70.81
69980;BME280;57318;56.232;43.944;2023-05-21T05:07:18;99954.13;;;16.85;70.20
69980;BME280;57318;56.232;43.944;2023-05-21T05:09:44;99955.22;;;16.92;70.11
69980;BME280;57318;56.232;43.944;2023-05-21T05:12:09;99949.25;;;16.99;70.41
69980;BME280;57318;56.232;43.944;2023-05-21T05:14:35;99953.00;;;17.06;69.93
69980;BME280;57318;56.232;43.944;2023-05-21T05:17:01;99959.06;;;17.08;69.54
69980;BME280;57318;56.232;43.944;2023-05-21T05:19:26;99966.28;;;17.07;69.73
69980;BME280;57318;56.232;43.944;2023-05-21T05:21:52;99963.44;;;17.09;69.84
69980;BME280;57318;56.232;43.944;2023-05-21T05:24:18;99961.44;;;17.11;69.58
69980;BME280;57318;56.232;43.944;2023-05-21T05:26:44;99963.31;;;17.10;69.73
69980;BME280;57318;56.232;43.944;2023-05-21T05:29:10;99953.78;;;17.16;69.98
69980;BME280;57318;56.232;43.944;2023-05-21T05:31:35;99959.53;;;17.21;69.71
69980;BME280;57318;56.232;43.944;2023-05-21T05:34:01;99966.13;;;17.27;69.40
69980;BME280;57318;56.232;43.944;2023-05-21T05:36:27;99967.22;;;17.34;69.33
69980;BME280;57318;56.232;43.944;2023-05-21T05:38:53;99971.13;;;17.40;69.39
69980;BME280;57318;56.232;43.944;2023-05-21T05:41:20;99977.03;;;17.43;69.39
69980;BME280;57318;56.232;43.944;2023-05-21T05:43:45;99980.41;;;17.45;69.34
69980;BME280;57318;56.232;43.944;2023-05-21T05:46:11;99977.09;;;17.52;69.09
69980;BME280;57318;56.232;43.944;2023-05-21T05:48:37;99983.47;;;17.50;68.90
69980;BME280;57318;56.232;43.944;2023-05-21T05:51:03;99982.03;;;17.56;68.51
69980;BME280;57318;56.232;43.944;2023-05-21T05:53:29;99982.38;;;17.61;68.72
69980;BME280;57318;56.232;43.944;2023-05-21T05:55:56;99979.59;;;17.71;68.45
69980;BME280;57318;56.232;43.944;2023-05-21T05:58:22;99979.19;;;17.84;68.12
69980;BME280;57318;56.232;43.944;2023-05-21T06:00:47;99977.66;;;17.99;67.50
69980;BME280;57318;56.232;43.944;2023-05-21T06:03:13;99981.94;;;18.10;66.91
69980;BME280;57318;56.232;43.944;2023-05-21T06:05:39;99982.84;;;18.19;66.90
69980;BME280;57318;56.232;43.944;2023-05-21T06:08:04;99973.13;;;18.26;66.80
69980;BME280;57318;56.232;43.944;2023-05-21T06:10:30;99983.19;;;18.24;67.08
69980;BME280;57318;56.232;43.944;2023-05-21T06:12:56;99991.28;;;18.24;66.85
69980;BME280;57318;56.232;43.944;2023-05-21T06:15:22;99991.94;;;18.26;66.71
69980;BME280;57318;56.232;43.944;2023-05-21T06:17:47;99984.50;;;18.20;66.11
69980;BME280;57318;56.232;43.944;2023-05-21T06:20:13;99989.38;;;18.16;66.48
69980;BME280;57318;56.232;43.944;2023-05-21T06:22:39;99988.00;;;18.12;66.91
69980;BME280;57318;56.232;43.944;2023-05-21T06:25:05;99994.56;;;18.10;66.97
69980;BME280;57318;56.232;43.944;2023-05-21T06:27:32;99994.81;;;17.98;66.78
69980;BME280;57318;56.232;43.944;2023-05-21T06:29:59;99988.72;;;17.96;67.21
69980;BME280;57318;56.232;43.944;2023-05-21T06:32:25;99986.94;;;18.05;67.23
69980;BME280;57318;56.232;43.944;2023-05-21T06:34:51;99991.75;;;18.19;66.86
69980;BME280;57318;56.232;43.944;2023-05-21T06:37:20;99984.66;;;18.45;66.15
69980;BME280;57318;56.232;43.944;2023-05-21T06:39:46;99996.53;;;18.68;65.02
69980;BME280;57318;56.232;43.944;2023-05-21T06:42:12;99995.22;;;19.15;63.88
69980;BME280;57318;56.232;43.944;2023-05-21T06:44:38;99996.13;;;19.65;61.70
69980;BME280;57318;56.232;43.944;2023-05-21T06:47:04;99998.47;;;20.09;60.32
69980;BME280;57318;56.232;43.944;2023-05-21T06:49:31;100001.28;;;20.41;58.63
69980;BME280;57318;56.232;43.944;2023-05-21T06:51:56;100005.41;;;20.68;57.52
69980;BME280;57318;56.232;43.944;2023-05-21T06:54:22;100011.78;;;20.83;56.84
69980;BME280;57318;56.232;43.944;2023-05-21T06:56:48;100008.81;;;21.01;56.01
69980;BME280;57318;56.232;43.944;2023-05-21T06:59:14;100011.25;;;21.19;55.01
69980;BME280;57318;56.232;43.944;2023-05-21T07:01:40;100010.53;;;21.25;55.20
69980;BME280;57318;56.232;43.944;2023-05-21T07:04:09;100016.91;;;21.33;54.88
69980;BME280;57318;56.232;43.944;2023-05-21T07:06:35;100013.13;;;21.42;53.94
69980;BME280;57318;56.232;43.944;2023-05-21T07:09:02;100019.59;;;21.64;53.43
69980;BME280;57318;56.232;43.944;2023-05-21T07:11:28;100011.38;;;21.95;53.50
69980;BME280;57318;56.232;43.944;2023-05-21T07:13:57;100018.22;;;22.59;51.52
69980;BME280;57318;56.232;43.944;2023-05-21T07:16:23;100022.03;;;23.74;48.80
69980;BME280;57318;56.232;43.944;2023-05-21T07:18:49;100029.19;;;25.02;46.49
69980;BME280;57318;56.232;43.944;2023-05-21T07:21:14;100028.59;;;25.88;42.97
69980;BME280;57318;56.232;43.944;2023-05-21T07:23:40;100036.47;;;26.77;40.90
69980;BME280;57318;56.232;43.944;2023-05-21T07:26:08;100050.66;;;27.83;38.56
69980;BME280;57318;56.232;43.944;2023-05-21T07:28:34;100031.13;;;28.55;36.20
69980;BME280;57318;56.232;43.944;2023-05-21T07:31:00;100033.50;;;28.70;36.26
69980;BME280;57318;56.232;43.944;2023-05-21T07:33:25;100029.66;;;28.08;36.97
69980;BME280;57318;56.232;43.944;2023-05-21T07:35:52;100039.38;;;27.72;38.05
69980;BME280;57318;56.232;43.944;2023-05-21T07:38:17;100025.56;;;27.35;38.37
69980;BME280;57318;56.232;43.944;2023-05-21T07:40:43;100026.44;;;26.77;38.75
69980;BME280;57318;56.232;43.944;2023-05-21T07:43:09;100024.72;;;26.83;38.94
69980;BME280;57318;56.232;43.944;2023-05-21T07:45:34;100031.06;;;26.57;39.90
69980;BME280;57318;56.232;43.944;2023-05-21T07:48:00;100026.09;;;26.14;40.91
69980;BME280;57318;56.232;43.944;2023-05-21T07:50:26;100034.28;;;26.07;41.40
69980;BME280;57318;56.232;43.944;2023-05-21T07:52:51;100026.06;;;26.20;41.24
69980;BME280;57318;56.232;43.944;2023-05-21T07:55:17;100029.81;;;25.79;40.95
69980;BME280;57318;56.232;43.944;2023-05-21T07:57:43;100034.97;;;25.34;41.87
69980;BME280;57318;56.232;43.944;2023-05-21T08:00:10;100043.19;;;24.99;42.30
69980;BME280;57318;56.232;43.944;2023-05-21T08:02:38;100030.91;;;24.68;42.75
69980;BME280;57318;56.232;43.944;2023-05-21T08:05:05;100031.00;;;24.46;42.61
69980;BME280;57318;56.232;43.944;2023-05-21T08:07:31;100030.94;;;24.40;43.02
69980;BME280;57318;56.232;43.944;2023-05-21T08:09:57;100036.81;;;24.43;43.59
69980;BME280;57318;56.232;43.944;2023-05-21T08:12:23;100027.00;;;24.14;43.74
69980;BME280;57318;56.232;43.944;2023-05-21T08:14:49;100038.28;;;23.68;44.07
69980;BME280;57318;56.232;43.944;2023-05-21T08:17:15;100037.47;;;23.31;45.06
69980;BME280;57318;56.232;43.944;2023-05-21T08:19:41;100037.50;;;23.01;46.04
69980;BME280;57318;56.232;43.944;2023-05-21T08:22:06;100034.63;;;22.73;45.88
69980;BME280;57318;56.232;43.944;2023-05-21T08:24:33;100036.97;;;22.61;46.67
69980;BME280;57318;56.232;43.944;2023-05-21T08:26:59;100036.22;;;22.37;46.63
69980;BME280;57318;56.232;43.944;2023-05-21T08:29:24;100032.94;;;22.04;47.06
69980;BME280;57318;56.232;43.944;2023-05-21T08:31:50;100029.66;;;21.93;47.95
69980;BME280;57318;56.232;43.944;2023-05-21T08:34:16;100036.72;;;21.79;48.64
69980;BME280;57318;56.232;43.944;2023-05-21T08:36:43;100041.47;;;21.77;48.60
69980;BME280;57318;56.232;43.944;2023-05-21T08:39:10;100047.94;;;21.91;48.19
69980;BME280;57318;56.232;43.944;2023-05-21T08:41:38;100054.81;;;21.79;47.26
69980;BME280;57318;56.232;43.944;2023-05-21T08:44:09;100050.53;;;21.85;48.01
69980;BME280;57318;56.232;43.944;2023-05-21T08:46:38;100052.16;;;21.94;48.18
69980;BME280;57318;56.232;43.944;2023-05-21T08:49:09;100053.94;;;22.02;47.51
69980;BME280;57318;56.232;43.944;2023-05-21T08:51:36;100060.53;;;22.22;47.60
69980;BME280;57318;56.232;43.944;2023-05-21T08:54:03;100053.06;;;22.24;46.94
69980;BME280;57318;56.232;43.944;2023-05-21T08:56:33;100057.25;;;22.27;46.56
69980;BME280;57318;56.232;43.944;2023-05-21T08:59:00;100058.53;;;22.16;46.43
69980;BME280;57318;56.232;43.944;2023-05-21T09:01:26;100059.97;;;21.89;45.71
69980;BME280;57318;56.232;43.944;2023-05-21T09:03:55;100057.81;;;21.84;45.52
69980;BME280;57318;56.232;43.944;2023-05-21T09:06:22;100055.22;;;21.91;46.30
69980;BME280;57318;56.232;43.944;2023-05-21T09:08:54;100062.13;;;21.70;46.73
69980;BME280;57318;56.232;43.944;2023-05-21T09:11:25;100062.22;;;21.62;46.86
69980;BME280;57318;56.232;43.944;2023-05-21T09:13:51;100071.41;;;21.76;45.71
69980;BME280;57318;56.232;43.944;2023-05-21T09:16:18;100074.56;;;22.03;44.86
69980;BME280;57318;56.232;43.944;2023-05-21T09:18:44;100072.38;;;22.59;42.89
69980;BME280;57318;56.232;43.944;2023-05-21T09:21:29;100073.25;;;23.63;41.44
69980;BME280;57318;56.232;43.944;2023-05-21T09:23:56;100058.75;;;24.42;39.51
69980;BME280;57318;56.232;43.944;2023-05-21T09:26:23;100066.47;;;25.15;37.45
69980;BME280;57318;56.232;43.944;2023-05-21T09:28:50;100077.75;;;25.67;35.66
69980;BME280;57318;56.232;43.944;2023-05-21T09:31:16;100065.25;;;25.92;34.46
69980;BME280;57318;56.232;43.944;2023-05-21T09:33:45;100071.75;;;26.58;33.15
69980;BME280;57318;56.232;43.944;2023-05-21T09:36:17;100067.75;;;26.54;32.88
69980;BME280;57318;56.232;43.944;2023-05-21T09:38:45;100064.19;;;26.47;32.94
69980;BME280;57318;56.232;43.944;2023-05-21T09:41:12;100062.53;;;26.46;32.93
69980;BME280;57318;56.232;43.944;2023-05-21T09:43:40;100057.06;;;26.39;32.32
69980;BME280;57318;56.232;43.944;2023-05-21T09:46:06;100057.50;;;25.96;33.01
69980;BME280;57318;56.232;43.944;2023-05-21T09:48:41;100056.44;;;25.84;33.11
69980;BME280;57318;56.232;43.944;2023-05-21T09:51:15;100048.22;;;25.50;34.25
69980;BME280;57318;56.232;43.944;2023-05-21T09:56:19;100064.03;;;25.27;34.88
69980;BME280;57318;56.232;43.944;2023-05-21T09:58:47;100064.56;;;25.57;34.48
69980;BME280;57318;56.232;43.944;2023-05-21T10:01:13;100073.19;;;25.87;33.25
69980;BME280;57318;56.232;43.944;2023-05-21T10:03:39;100064.19;;;25.93;32.69
69980;BME280;57318;56.232;43.944;2023-05-21T10:06:07;100071.56;;;26.13;32.86
69980;BME280;57318;56.232;43.944;2023-05-21T10:08:41;100068.66;;;27.07;31.77
69980;BME280;57318;56.232;43.944;2023-05-21T10:11:10;100064.53;;;28.57;29.74
69980;BME280;57318;56.232;43.944;2023-05-21T10:13:39;100080.00;;;30.52;27.30
69980;BME280;57318;56.232;43.944;2023-05-21T10:16:06;100079.81;;;31.92;25.65
69980;BME280;57318;56.232;43.944;2023-05-21T10:18:32;100076.66;;;32.68;24.49
69980;BME280;57318;56.232;43.944;2023-05-21T10:20:58;100073.50;;;33.48;23.71
69980;BME280;57318;56.232;43.944;2023-05-21T10:23:24;100072.06;;;32.96;23.99
69980;BME280;57318;56.232;43.944;2023-05-21T10:25:52;100072.97;;;33.24;23.87
69980;BME280;57318;56.232;43.944;2023-05-21T10:28:19;100071.03;;;33.02;24.54
69980;BME280;57318;56.232;43.944;2023-05-21T10:30:45;100080.97;;;32.81;24.56
69980;BME280;57318;56.232;43.944;2023-05-21T10:33:14;100074.69;;;32.30;25.48
69980;BME280;57318;56.232;43.944;2023-05-21T10:35:41;100070.34;;;31.54;26.65
69980;BME280;57318;56.232;43.944;2023-05-21T10:38:08;100069.94;;;30.69;27.73
69980;BME280;57318;56.232;43.944;2023-05-21T10:40:34;100072.75;;;29.92;29.27
69980;BME280;57318;56.232;43.944;2023-05-21T10:43:12;100081.75;;;29.20;29.82
69980;BME280;57318;56.232;43.944;2023-05-21T10:48:52;100068.13;;;29.31;29.46
69980;BME280;57318;56.232;43.944;2023-05-21T10:56:54;100074.97;;;33.56;24.49
69980;BME280;57318;56.232;43.944;2023-05-21T11:01:53;100072.31;;;33.17;24.26
69980;BME280;57318;56.232;43.944;2023-05-21T11:04:25;100068.94;;;32.31;25.34
69980;BME280;57318;56.232;43.944;2023-05-21T11:06:51;100075.00;;;32.50;25.37
69980;BME280;57318;56.232;43.944;2023-05-21T11:09:26;100067.81;;;31.98;25.58
69980;BME280;57318;56.232;43.944;2023-05-21T11:11:56;100069.78;;;31.69;25.86
69980;BME280;57318;56.232;43.944;2023-05-21T11:14:30;100073.41;;;31.00;27.10
69980;BME280;57318;56.232;43.944;2023-05-21T11:17:01;100069.38;;;30.55;27.76
69980;BME280;57318;56.232;43.944;2023-05-21T11:19:40;100062.41;;;30.29;28.40
69980;BME280;57318;56.232;43.944;2023-05-21T11:22:09;100064.25;;;31.81;26.66
69980;BME280;57318;56.232;43.944;2023-05-21T11:24:44;100061.50;;;33.10;25.37
69980;BME280;57318;56.232;43.944;2023-05-21T11:27:10;100066.06;;;34.36;22.39
69980;BME280;57318;56.232;43.944;2023-05-21T11:29:39;100075.16;;;35.47;21.52
69980;BME280;57318;56.232;43.944;2023-05-21T11:32:07;100068.25;;;35.65;21.55
69980;BME280;57318;56.232;43.944;2023-05-21T11:34:47;100070.75;;;35.62;20.02
69980;BME280;57318;56.232;43.944;2023-05-21T11:39:48;100059.06;;;34.70;19.56
69980;BME280;57318;56.232;43.944;2023-05-21T11:42:33;100051.50;;;34.13;20.15
69980;BME280;57318;56.232;43.944;2023-05-21T11:45:01;100064.38;;;33.42;21.20
69980;BME280;57318;56.232;43.944;2023-05-21T11:47:32;100050.53;;;33.37;21.19
69980;BME280;57318;56.232;43.944;2023-05-21T11:50:00;100060.50;;;33.98;20.81
69980;BME280;57318;56.232;43.944;2023-05-21T11:52:28;100048.53;;;34.57;19.32
69980;BME280;57318;56.232;43.944;2023-05-21T11:54:54;100050.59;;;35.66;18.62
69980;BME280;57318;56.232;43.944;2023-05-21T11:57:25;100044.09;;;35.24;19.37
69980;BME280;57318;56.232;43.944;2023-05-21T11:59:55;100040.38;;;33.97;20.48
69980;BME280;57318;56.232;43.944;2023-05-21T12:02:24;100041.47;;;32.70;21.84
69980;BME280;57318;56.232;43.944;2023-05-21T12:04:50;100037.69;;;32.37;22.61
69980;BME280;57318;56.232;43.944;2023-05-21T12:07:19;100038.16;;;32.51;22.72
69980;BME280;57318;56.232;43.944;2023-05-21T12:12:14;100037.38;;;32.17;22.97
69980;BME280;57318;56.232;43.944;2023-05-21T12:14:53;100046.41;;;31.66;23.62
69980;BME280;57318;56.232;43.944;2023-05-21T12:17:26;100049.47;;;31.12;24.57
69980;BME280;57318;56.232;43.944;2023-05-21T12:19:56;100031.81;;;30.20;25.52
69980;BME280;57318;56.232;43.944;2023-05-21T12:22:23;100026.44;;;29.60;26.75
69980;BME280;57318;56.232;43.944;2023-05-21T12:24:49;100027.63;;;28.85;27.31
69980;BME280;57318;56.232;43.944;2023-05-21T12:27:15;100028.44;;;29.83;26.38
69980;BME280;57318;56.232;43.944;2023-05-21T12:29:48;100040.22;;;30.78;25.09
69980;BME280;57318;56.232;43.944;2023-05-21T12:32:16;100037.03;;;31.96;24.08
69980;BME280;57318;56.232;43.944;2023-05-21T12:34:45;100043.50;;;31.90;24.05
69980;BME280;57318;56.232;43.944;2023-05-21T12:39:42;100032.38;;;32.14;24.01
69980;BME280;57318;56.232;43.944;2023-05-21T12:42:09;100032.38;;;32.14;23.99
69980;BME280;57318;56.232;43.944;2023-05-21T12:44:34;100034.66;;;31.25;24.67
69980;BME280;57318;56.232;43.944;2023-05-21T12:47:01;100027.03;;;30.75;25.31
69980;BME280;57318;56.232;43.944;2023-05-21T12:49:35;100014.16;;;30.16;25.88
69980;BME280;57318;56.232;43.944;2023-05-21T12:52:03;100021.75;;;29.48;26.71
69980;BME280;57318;56.232;43.944;2023-05-21T12:54:33;100020.03;;;29.66;26.96
69980;BME280;57318;56.232;43.944;2023-05-21T12:57:34;100025.72;;;30.30;26.23
69980;BME280;57318;56.232;43.944;2023-05-21T13:00:02;100021.78;;;30.62;24.98
69980;BME280;57318;56.232;43.944;2023-05-21T13:02:41;100030.16;;;30.43;25.47
69980;BME280;57318;56.232;43.944;2023-05-21T13:05:16;100020.78;;;29.85;25.79
69980;BME280;57318;56.232;43.944;2023-05-21T13:07:42;100022.06;;;29.70;26.28
69980;BME280;57318;56.232;43.944;2023-05-21T13:10:11;100022.16;;;30.41;25.10